createdAt,value
2023-02-07T00:01:20.595Z,21.07
2023-02-07T00:03:49.932Z,20.60
2023-02-07T00:06:20.057Z,22.10
2023-02-07T00:08:48.210Z,21.60
2023-02-07T00:11:17.272Z,20.67
2023-02-07T00:13:45.403Z,22.50
2023-02-07T00:16:13.300Z,18.23
2023-02-07T00:18:41.407Z,22.20
2023-02-07T00:21:13.200Z,20.23
2023-02-07T00:23:40.925Z,21.90
2023-02-07T00:26:09.419Z,19.80
2023-02-07T00:28:37.489Z,19.57
2023-02-07T00:31:06.998Z,19.70
2023-02-07T00:33:35.509Z,20.47
2023-02-07T00:36:04.852Z,19.23
2023-02-07T00:38:34.353Z,20.63
2023-02-07T00:41:02.804Z,23.13
2023-02-07T00:43:30.991Z,21.67
2023-02-07T00:45:59.479Z,21.93
2023-02-07T00:48:27.100Z,24.87
2023-02-07T00:50:54.796Z,25.40
2023-02-07T00:53:22.582Z,27.17
2023-02-07T00:55:51.476Z,30.43
2023-02-07T00:58:18.945Z,27.27
2023-02-07T01:00:46.543Z,26.00
2023-02-07T01:03:13.997Z,26.73
2023-02-07T01:05:41.650Z,25.87
2023-02-07T01:08:09.383Z,25.27
2023-02-07T01:10:39.465Z,23.10
2023-02-07T01:13:08.300Z,22.67
2023-02-07T01:15:37.821Z,22.13
2023-02-07T01:18:06.966Z,22.50
2023-02-07T01:20:34.546Z,23.17
2023-02-07T01:23:02.039Z,22.37
2023-02-07T01:25:29.571Z,21.33
2023-02-07T01:27:57.054Z,20.57
2023-02-07T01:30:25.875Z,22.03
2023-02-07T01:32:53.325Z,21.97
2023-02-07T01:35:21.328Z,24.47
2023-02-07T01:37:48.772Z,22.23
2023-02-07T01:40:16.770Z,23.87
2023-02-07T01:42:44.196Z,24.07
2023-02-07T01:45:24.245Z,23.97
2023-02-07T01:47:55.009Z,23.10
2023-02-07T01:50:23.591Z,22.57
2023-02-07T01:52:51.546Z,23.37
2023-02-07T01:55:23.919Z,24.57
2023-02-07T01:57:53.490Z,24.57
2023-02-07T02:00:21.967Z,24.13
2023-02-07T02:02:49.481Z,24.60
2023-02-07T02:05:19.969Z,25.80
2023-02-07T02:07:47.411Z,24.87
2023-02-07T02:10:16.918Z,26.57
2023-02-07T02:12:56.275Z,24.47
2023-02-07T02:15:33.084Z,25.17
2023-02-07T02:18:17.591Z,26.47
2023-02-07T02:21:13.533Z,26.73
2023-02-07T02:23:51.473Z,26.23
2023-02-07T02:26:48.034Z,27.40
2023-02-07T02:29:37.837Z,27.57
2023-02-07T02:32:27.508Z,25.90
2023-02-07T02:35:03.993Z,27.77
2023-02-07T02:37:41.975Z,28.27
2023-02-07T02:40:14.999Z,25.97
2023-02-07T02:42:47.634Z,27.13
2023-02-07T02:45:19.975Z,29.90
2023-02-07T02:47:50.636Z,29.17
2023-02-07T02:50:24.127Z,27.03
2023-02-07T02:52:51.585Z,26.30
2023-02-07T02:55:32.364Z,27.10
2023-02-07T02:58:11.646Z,28.00
2023-02-07T03:00:51.771Z,26.07
2023-02-07T03:03:37.244Z,25.63
2023-02-07T03:06:20.959Z,26.67
2023-02-07T03:08:58.355Z,26.30
2023-02-07T03:11:27.869Z,28.77
2023-02-07T03:14:06.002Z,27.33
2023-02-07T03:16:39.556Z,27.90
2023-02-07T03:19:10.857Z,27.83
2023-02-07T03:21:43.804Z,27.50
2023-02-07T03:24:16.082Z,28.10
2023-02-07T03:26:46.794Z,29.73
2023-02-07T03:29:16.728Z,28.53
2023-02-07T03:31:49.361Z,27.77
2023-02-07T03:34:20.362Z,26.50
2023-02-07T03:36:55.848Z,28.00
2023-02-07T03:39:23.545Z,28.13
2023-02-07T03:41:56.463Z,28.13
2023-02-07T03:44:27.015Z,27.53
2023-02-07T03:46:55.519Z,28.30
2023-02-07T03:49:23.220Z,26.73
2023-02-07T03:51:52.017Z,28.33
2023-02-07T03:54:19.773Z,29.30
2023-02-07T03:56:47.227Z,27.47
2023-02-07T03:59:14.674Z,28.27
2023-02-07T04:01:42.734Z,29.90
2023-02-07T04:04:11.418Z,27.13
2023-02-07T04:06:39.446Z,28.97
2023-02-07T04:09:10.716Z,31.17
2023-02-07T04:11:39.148Z,29.67
2023-02-07T04:14:06.625Z,32.90
2023-02-07T04:16:34.488Z,31.67
2023-02-07T04:19:01.935Z,31.63
2023-02-07T04:21:29.385Z,31.83
2023-02-07T04:23:56.837Z,31.27
2023-02-07T04:26:25.643Z,30.70
2023-02-07T04:28:53.134Z,31.37
2023-02-07T04:31:20.588Z,31.30
2023-02-07T04:33:49.161Z,29.67
2023-02-07T04:36:16.702Z,30.33
2023-02-07T04:38:44.770Z,31.43
2023-02-07T04:41:12.247Z,31.50
2023-02-07T04:43:40.978Z,28.43
2023-02-07T04:46:09.880Z,28.03
2023-02-07T04:48:37.963Z,28.60
2023-02-07T04:51:05.698Z,30.03
2023-02-07T04:53:33.315Z,30.30
2023-02-07T04:56:00.756Z,30.40
2023-02-07T04:58:28.419Z,29.30
2023-02-07T05:00:57.195Z,30.37
2023-02-07T05:03:24.636Z,27.57
2023-02-07T05:05:54.563Z,30.03
2023-02-07T05:08:22.910Z,28.00
2023-02-07T05:10:53.530Z,27.27
2023-02-07T05:13:21.149Z,26.67
2023-02-07T05:15:48.855Z,28.67
2023-02-07T05:18:17.696Z,29.43
2023-02-07T05:20:45.269Z,27.33
2023-02-07T05:23:12.756Z,27.87
2023-02-07T05:25:42.160Z,27.77
2023-02-07T05:28:09.828Z,28.33
2023-02-07T05:30:37.845Z,28.20
2023-02-07T05:33:04.452Z,27.97
2023-02-07T05:35:34.383Z,27.90
2023-02-07T05:38:02.189Z,28.17
2023-02-07T05:40:29.633Z,27.83
2023-02-07T05:42:57.030Z,28.97
2023-02-07T05:45:24.452Z,28.50
2023-02-07T05:47:51.949Z,30.17
2023-02-07T05:50:19.557Z,29.43
2023-02-07T05:52:48.465Z,28.23
2023-02-07T05:55:16.512Z,27.00
2023-02-07T05:57:45.612Z,30.50
2023-02-07T06:00:15.559Z,27.37
2023-02-07T06:02:43.707Z,27.90
2023-02-07T06:05:13.444Z,27.93
2023-02-07T06:07:40.871Z,28.00
2023-02-07T06:10:10.534Z,28.60
2023-02-07T06:12:38.137Z,32.53
2023-02-07T06:15:05.938Z,30.63
2023-02-07T06:17:33.574Z,30.73
2023-02-07T06:20:00.990Z,30.73
2023-02-07T06:22:28.425Z,30.03
2023-02-07T06:24:55.826Z,27.30
2023-02-07T06:27:24.627Z,28.63
2023-02-07T06:29:52.038Z,30.03
2023-02-07T06:32:19.477Z,30.30
2023-02-07T06:34:46.872Z,30.87
2023-02-07T06:37:14.477Z,30.43
2023-02-07T06:39:41.928Z,30.37
2023-02-07T06:42:09.433Z,30.30
2023-02-07T06:44:38.149Z,30.87
2023-02-07T06:47:05.715Z,29.53
2023-02-07T06:49:33.165Z,29.90
2023-02-07T06:52:00.624Z,28.50
2023-02-07T06:54:28.208Z,29.20
2023-02-07T06:56:55.630Z,29.67
2023-02-07T06:59:23.026Z,29.37
2023-02-07T07:01:51.829Z,29.70
2023-02-07T07:04:19.342Z,28.37
2023-02-07T07:06:47.869Z,30.23
2023-02-07T07:09:15.313Z,30.93
2023-02-07T07:11:44.304Z,30.40
2023-02-07T07:14:12.455Z,28.07
2023-02-07T07:16:41.622Z,33.80
2023-02-07T07:19:10.378Z,31.80
2023-02-07T07:21:37.776Z,28.53
2023-02-07T07:24:05.780Z,27.90
2023-02-07T07:26:47.888Z,29.50
2023-02-07T07:29:16.868Z,28.23
2023-02-07T07:31:44.423Z,29.30
2023-02-07T07:34:13.741Z,29.80
2023-02-07T07:36:41.247Z,29.63
2023-02-07T07:39:08.967Z,28.80
2023-02-07T07:41:36.424Z,29.00
2023-02-07T07:44:04.022Z,29.70
2023-02-07T07:46:31.524Z,30.33
2023-02-07T07:48:59.074Z,30.57
2023-02-07T07:51:27.832Z,29.97
2023-02-07T07:53:55.271Z,27.47
2023-02-07T07:56:22.653Z,29.77
2023-02-07T07:58:50.098Z,29.60
2023-02-07T08:01:17.928Z,27.30
2023-02-07T08:03:45.417Z,27.80
2023-02-07T08:06:12.872Z,29.90
2023-02-07T08:08:41.871Z,29.67
2023-02-07T08:11:10.949Z,31.53
2023-02-07T08:13:38.853Z,28.80
2023-02-07T08:16:08.626Z,28.43
2023-02-07T08:18:36.469Z,29.93
2023-02-07T08:21:04.450Z,27.13
2023-02-07T08:23:31.897Z,24.67
2023-02-07T08:26:00.673Z,27.03
2023-02-07T08:28:28.748Z,25.20
2023-02-07T08:31:00.247Z,23.97
2023-02-07T08:33:30.185Z,23.57
2023-02-07T08:35:58.445Z,21.70
2023-02-07T08:38:25.877Z,23.07
2023-02-07T08:40:53.377Z,21.17
2023-02-07T08:43:22.090Z,21.17
2023-02-07T08:45:50.209Z,20.20
2023-02-07T08:48:17.890Z,21.50
2023-02-07T08:50:45.303Z,23.03
2023-02-07T08:53:12.982Z,21.87
2023-02-07T08:55:41.825Z,22.73
2023-02-07T08:58:09.546Z,21.73
2023-02-07T09:00:39.229Z,21.77
2023-02-07T09:03:07.248Z,19.03
2023-02-07T09:05:34.738Z,18.97
2023-02-07T09:08:02.854Z,16.20
2023-02-07T09:10:30.573Z,20.40
2023-02-07T09:12:57.992Z,18.10
2023-02-07T09:15:26.247Z,17.37
2023-02-07T09:17:54.994Z,18.13
2023-02-07T09:20:22.446Z,18.40
2023-02-07T09:23:07.335Z,18.30
2023-02-07T09:25:34.762Z,16.57
2023-02-07T09:28:02.233Z,15.97
2023-02-07T09:30:29.697Z,17.80
2023-02-07T09:32:59.206Z,19.17
2023-02-07T09:35:26.704Z,17.37
2023-02-07T09:41:50.281Z,18.23
2023-02-07T09:44:25.725Z,16.67
2023-02-07T09:46:59.195Z,19.60
2023-02-07T09:49:36.915Z,22.40
2023-02-07T09:52:06.618Z,21.53
2023-02-07T09:54:39.268Z,19.57
2023-02-07T09:57:11.061Z,19.63
2023-02-07T09:59:47.401Z,17.97
2023-02-07T10:02:21.755Z,17.53
2023-02-07T10:04:52.688Z,16.67
2023-02-07T10:07:20.293Z,16.70
2023-02-07T10:09:48.406Z,17.17
2023-02-07T10:12:41.603Z,17.17
2023-02-07T10:15:28.212Z,16.77
2023-02-07T10:18:12.836Z,16.93
2023-02-07T10:20:47.333Z,16.77
2023-02-07T10:23:29.124Z,18.37
2023-02-07T10:26:12.076Z,17.23
2023-02-07T10:28:59.731Z,18.30
2023-02-07T10:31:29.518Z,17.13
2023-02-07T10:34:05.225Z,17.27
2023-02-07T10:36:34.827Z,17.47
2023-02-07T10:39:09.842Z,18.30
2023-02-07T10:41:39.729Z,18.10
2023-02-07T10:44:10.733Z,19.33
2023-02-07T10:46:39.577Z,18.37
2023-02-07T10:49:07.161Z,18.20
2023-02-07T10:51:39.572Z,17.90
2023-02-07T10:54:10.050Z,18.77
2023-02-07T10:56:43.018Z,17.87
2023-02-07T10:59:33.369Z,17.97
2023-02-07T11:02:01.181Z,17.47
2023-02-07T11:04:36.343Z,18.07
2023-02-07T11:07:07.471Z,18.37
2023-02-07T11:09:37.680Z,18.00
2023-02-07T11:12:16.365Z,17.07
2023-02-07T11:15:01.256Z,18.07
2023-02-07T11:17:29.500Z,18.63
2023-02-07T11:19:57.138Z,18.03
2023-02-07T11:22:29.295Z,16.03
2023-02-07T11:25:03.593Z,16.37
2023-02-07T11:27:38.164Z,14.97
2023-02-07T11:30:09.159Z,14.80
2023-02-07T11:32:39.217Z,17.27
2023-02-07T11:35:09.459Z,18.23
2023-02-07T11:37:41.963Z,17.17
2023-02-07T11:40:24.756Z,17.97
2023-02-07T11:43:00.140Z,17.40
2023-02-07T11:45:29.014Z,17.67
2023-02-07T11:47:58.623Z,16.27
2023-02-07T11:50:30.706Z,18.20
2023-02-07T11:53:01.510Z,15.87
2023-02-07T11:55:33.908Z,17.47
2023-02-07T11:58:05.402Z,17.33
2023-02-07T12:00:37.295Z,17.53
2023-02-07T12:03:08.864Z,16.27
2023-02-07T12:05:40.224Z,16.13
2023-02-07T12:08:16.256Z,15.63
2023-02-07T12:10:46.701Z,16.60
2023-02-07T12:13:19.157Z,17.00
2023-02-07T12:15:50.502Z,16.67
2023-02-07T12:18:27.068Z,15.50
2023-02-07T12:23:43.077Z,16.27
2023-02-07T12:26:20.553Z,15.63
2023-02-07T12:29:01.308Z,15.77
2023-02-07T12:31:42.410Z,15.67
2023-02-07T12:34:18.347Z,15.10
2023-02-07T12:36:52.109Z,16.33
2023-02-07T12:39:28.291Z,16.00
2023-02-07T12:42:03.489Z,16.13
2023-02-07T12:44:35.013Z,15.30
2023-02-07T12:47:09.197Z,14.63
2023-02-07T12:49:54.914Z,16.30
2023-02-07T12:52:35.247Z,14.73
2023-02-07T12:55:20.489Z,14.67
2023-02-07T12:58:05.614Z,15.97
2023-02-07T13:00:48.666Z,15.50
2023-02-07T13:03:28.826Z,15.80
2023-02-07T13:06:05.733Z,14.67
2023-02-07T13:08:43.826Z,13.60
2023-02-07T13:11:25.444Z,9.17
2023-02-07T13:14:05.455Z,12.27
2023-02-07T13:16:40.938Z,13.60
2023-02-07T13:19:18.692Z,12.07
2023-02-07T13:21:55.113Z,13.03
2023-02-07T13:24:25.692Z,14.17
2023-02-07T13:26:58.212Z,12.67
2023-02-07T13:29:28.274Z,13.43
2023-02-07T13:31:59.232Z,13.07
2023-02-07T13:34:31.482Z,12.97
2023-02-07T13:37:05.356Z,13.33
2023-02-07T13:39:53.772Z,11.40
2023-02-07T13:42:32.079Z,15.20
2023-02-07T13:45:07.450Z,14.73
2023-02-07T13:47:51.794Z,13.90
2023-02-07T13:50:31.799Z,15.07
2023-02-07T13:53:06.209Z,13.33
2023-02-07T13:55:37.979Z,12.93
2023-02-07T13:59:03.509Z,13.50
2023-02-07T14:01:32.845Z,13.70
2023-02-07T14:04:05.388Z,13.30
2023-02-07T14:06:36.949Z,13.90
2023-02-07T14:09:11.759Z,12.33
2023-02-07T14:11:43.910Z,13.27
2023-02-07T14:14:24.065Z,12.93
2023-02-07T14:16:53.918Z,12.10
2023-02-07T14:19:49.538Z,12.43
2023-02-07T14:22:18.827Z,12.03
2023-02-07T14:24:52.458Z,12.20
2023-02-07T14:27:30.973Z,11.80
2023-02-07T14:30:17.938Z,11.90
2023-02-07T14:33:01.864Z,12.70
2023-02-07T14:35:32.684Z,12.80
2023-02-07T14:38:13.652Z,11.67
2023-02-07T14:41:09.614Z,11.80
2023-02-07T14:43:45.529Z,13.00
2023-02-07T14:46:17.760Z,12.20
2023-02-07T14:48:50.485Z,11.63
2023-02-07T14:51:21.600Z,11.70
2023-02-07T14:53:58.899Z,12.23
2023-02-07T14:56:47.250Z,12.10
2023-02-07T14:59:19.396Z,10.87
2023-02-07T15:01:48.263Z,12.40
2023-02-07T15:04:16.868Z,12.03
2023-02-07T15:06:45.718Z,12.17
2023-02-07T15:09:20.473Z,11.00
2023-02-07T15:11:53.970Z,12.37
2023-02-07T15:14:32.175Z,10.73
2023-02-07T15:17:01.480Z,12.23
2023-02-07T15:19:35.358Z,12.93
2023-02-07T15:22:05.602Z,11.17
2023-02-07T15:24:50.946Z,11.73
2023-02-07T15:27:21.648Z,11.50
2023-02-07T15:29:55.214Z,10.50
2023-02-07T15:32:27.905Z,11.03
2023-02-07T15:34:56.281Z,11.20
2023-02-07T15:37:26.043Z,11.93
2023-02-07T15:39:54.572Z,11.73
2023-02-07T15:42:22.937Z,12.13
2023-02-07T15:44:52.316Z,12.17
2023-02-07T15:47:37.367Z,12.00
2023-02-07T15:50:08.790Z,12.50
2023-02-07T15:52:41.073Z,11.87
2023-02-07T15:55:19.175Z,12.00
2023-02-07T15:57:46.697Z,11.87
2023-02-07T16:00:18.468Z,12.80
2023-02-07T16:02:56.889Z,20.57
2023-02-07T16:05:27.700Z,13.00
2023-02-07T16:07:55.860Z,12.63
2023-02-07T16:10:34.956Z,12.53
2023-02-07T16:13:03.183Z,13.20
2023-02-07T16:15:33.125Z,14.13
2023-02-07T16:18:03.257Z,15.10
2023-02-07T16:20:34.250Z,13.00
2023-02-07T16:23:04.498Z,13.53
2023-02-07T16:25:34.399Z,13.60
2023-02-07T16:28:04.678Z,16.10
2023-02-07T16:30:35.962Z,14.90
2023-02-07T16:33:06.575Z,15.50
2023-02-07T16:35:34.434Z,15.20
2023-02-07T16:38:01.941Z,15.33
2023-02-07T16:40:29.395Z,15.60
2023-02-07T16:42:57.907Z,15.40
2023-02-07T16:45:26.877Z,15.47
2023-02-07T16:47:55.288Z,14.90
2023-02-07T16:50:25.868Z,13.93
2023-02-07T16:52:56.876Z,13.53
2023-02-07T16:55:27.325Z,11.80
2023-02-07T16:57:55.867Z,14.37
2023-02-07T17:00:25.377Z,13.17
2023-02-07T17:02:53.929Z,12.87
2023-02-07T17:05:22.701Z,12.70
2023-02-07T17:07:52.040Z,12.00
2023-02-07T17:10:23.214Z,12.27
2023-02-07T17:12:50.711Z,11.13
2023-02-07T17:15:18.207Z,11.70
2023-02-07T17:17:45.872Z,12.23
2023-02-07T17:20:23.989Z,12.20
2023-02-07T17:22:53.471Z,12.17
2023-02-07T17:25:23.103Z,12.93
2023-02-07T17:27:50.669Z,12.33
2023-02-07T17:30:19.960Z,13.07
2023-02-07T17:32:47.578Z,12.97
2023-02-07T17:35:15.545Z,12.83
2023-02-07T17:37:43.262Z,12.57
2023-02-07T17:40:24.334Z,11.03
2023-02-07T17:42:51.837Z,13.57
2023-02-07T17:45:19.425Z,14.57
2023-02-07T17:47:47.004Z,14.70
2023-02-07T17:50:18.840Z,13.37
2023-02-07T17:52:46.841Z,13.33
2023-02-07T17:55:14.643Z,12.83
2023-02-07T17:57:44.294Z,13.03
2023-02-07T18:00:17.099Z,13.53
2023-02-07T18:02:47.317Z,11.77
2023-02-07T18:05:15.782Z,12.27
2023-02-07T18:07:43.405Z,14.77
2023-02-07T18:10:16.676Z,16.30
2023-02-07T18:12:45.555Z,14.83
2023-02-07T18:15:13.951Z,16.20
2023-02-07T18:17:47.092Z,14.80
2023-02-07T18:20:16.821Z,14.33
2023-02-07T18:22:44.260Z,13.43
2023-02-07T18:25:12.025Z,14.47
2023-02-07T18:27:39.475Z,13.93
2023-02-07T18:30:09.458Z,13.97
2023-02-07T18:32:36.960Z,15.57
2023-02-07T18:35:05.766Z,16.67
2023-02-07T18:37:33.513Z,18.40
2023-02-07T18:40:00.989Z,17.80
2023-02-07T18:42:29.868Z,18.40
2023-02-07T18:44:57.300Z,17.90
2023-02-07T18:47:26.644Z,19.13
2023-02-07T18:49:54.090Z,19.07
2023-02-07T18:52:21.557Z,17.73
2023-02-07T18:54:48.968Z,18.47
2023-02-07T18:57:16.515Z,16.90
2023-02-07T18:59:43.998Z,17.40
2023-02-07T19:02:13.074Z,18.73
2023-02-07T19:04:41.905Z,21.37
2023-02-07T19:07:09.370Z,21.47
2023-02-07T19:09:36.835Z,20.17
2023-02-07T19:12:04.638Z,20.73
2023-02-07T19:14:32.654Z,18.10
2023-02-07T19:17:01.105Z,20.60
2023-02-07T19:19:30.880Z,21.30
2023-02-07T19:22:00.345Z,19.87
2023-02-07T19:24:28.320Z,19.77
2023-02-07T19:26:57.286Z,19.73
2023-02-07T19:29:31.505Z,20.67
2023-02-07T19:32:00.965Z,19.27
2023-02-07T19:34:28.805Z,17.60
2023-02-07T19:36:56.636Z,18.27
2023-02-07T19:39:25.436Z,18.77
2023-02-07T19:41:53.273Z,18.43
2023-02-07T19:44:20.935Z,18.10
2023-02-07T19:46:48.478Z,19.50
2023-02-07T19:49:18.543Z,15.87
2023-02-07T19:51:46.012Z,16.07
2023-02-07T19:54:15.282Z,20.53
2023-02-07T19:56:44.241Z,17.53
2023-02-07T19:59:11.728Z,18.67
2023-02-07T20:01:39.301Z,19.10
2023-02-07T20:04:06.949Z,20.43
2023-02-07T20:06:35.785Z,20.83
2023-02-07T20:09:05.833Z,19.27
2023-02-07T20:11:36.250Z,19.97
2023-02-07T20:14:07.831Z,20.80
2023-02-07T20:16:39.602Z,20.60
2023-02-07T20:19:08.245Z,20.20
2023-02-07T20:21:37.349Z,21.13
2023-02-07T20:24:05.653Z,21.23
2023-02-07T20:26:39.668Z,21.77
2023-02-07T20:29:12.706Z,21.57
2023-02-07T20:31:40.436Z,22.30
2023-02-07T20:34:08.838Z,21.50
2023-02-07T20:36:40.770Z,21.60
2023-02-07T20:39:11.307Z,21.93
2023-02-07T20:41:41.467Z,24.10
2023-02-07T20:44:14.711Z,22.27
2023-02-07T20:46:46.588Z,22.03
2023-02-07T20:49:17.277Z,19.93
2023-02-07T20:51:45.633Z,22.50
2023-02-07T20:54:13.765Z,21.97
2023-02-07T20:56:41.324Z,20.23
2023-02-07T20:59:15.922Z,21.33
2023-02-07T21:01:43.327Z,19.60
2023-02-07T21:04:10.812Z,21.03
2023-02-07T21:06:38.459Z,20.00
2023-02-07T21:09:08.245Z,20.23
2023-02-07T21:11:38.066Z,20.97
2023-02-07T21:14:07.387Z,18.50
2023-02-07T21:16:36.540Z,21.17
2023-02-07T21:19:04.225Z,20.70
2023-02-07T21:21:32.175Z,21.17
2023-02-07T21:24:02.468Z,21.17
2023-02-07T21:26:32.577Z,20.63
2023-02-07T21:29:04.408Z,20.50
2023-02-07T21:31:34.863Z,20.53
2023-02-07T21:34:05.091Z,21.90
2023-02-07T21:36:34.381Z,20.37
2023-02-07T21:39:04.485Z,21.30
2023-02-07T21:41:32.218Z,20.40
2023-02-07T21:44:00.383Z,20.53
2023-02-07T21:46:30.145Z,21.07
2023-02-07T21:49:00.395Z,20.87
2023-02-07T21:51:31.367Z,21.00
2023-02-07T21:53:59.349Z,20.60
2023-02-07T21:56:29.236Z,22.03
2023-02-07T21:58:58.777Z,20.43
2023-02-07T22:01:27.185Z,20.37
2023-02-07T22:03:56.614Z,21.13
2023-02-07T22:06:24.671Z,21.23
2023-02-07T22:08:56.238Z,21.83
2023-02-07T22:11:25.629Z,19.80
2023-02-07T22:13:54.731Z,19.43
2023-02-07T22:16:24.422Z,19.93
2023-02-07T22:18:53.320Z,20.00
2023-02-07T22:21:23.472Z,20.07
2023-02-07T22:23:52.963Z,21.80
2023-02-07T22:26:20.701Z,19.27
2023-02-07T22:28:48.846Z,21.47
2023-02-07T22:31:19.267Z,21.17
2023-02-07T22:33:46.893Z,21.83
2023-02-07T22:36:15.371Z,21.20
2023-02-07T22:38:43.290Z,21.03
2023-02-07T22:41:12.315Z,20.40
2023-02-07T22:43:40.337Z,21.23
2023-02-07T22:46:13.855Z,19.37
2023-02-07T22:48:41.709Z,21.97
2023-02-07T22:51:13.476Z,22.00
2023-02-07T22:53:41.586Z,19.93
2023-02-07T22:56:09.569Z,19.87
2023-02-07T22:58:38.685Z,21.87
2023-02-07T23:01:07.806Z,23.10
2023-02-07T23:03:35.849Z,21.77
2023-02-07T23:06:04.637Z,22.07
2023-02-07T23:08:32.049Z,22.97
2023-02-07T23:10:59.619Z,21.80
2023-02-07T23:13:27.066Z,23.07
2023-02-07T23:15:55.848Z,21.77
2023-02-07T23:18:24.760Z,20.20
2023-02-07T23:20:52.836Z,24.03
2023-02-07T23:23:22.056Z,25.17
2023-02-07T23:25:49.769Z,23.07
2023-02-07T23:28:17.284Z,24.07
2023-02-07T23:30:44.974Z,23.37
2023-02-07T23:33:13.779Z,22.83
2023-02-07T23:35:41.195Z,22.93
2023-02-07T23:38:08.656Z,23.80
2023-02-07T23:40:36.081Z,24.20
2023-02-07T23:43:03.542Z,24.27
2023-02-07T23:45:30.972Z,24.90
2023-02-07T23:47:58.428Z,24.40
2023-02-07T23:50:29.193Z,25.53
2023-02-07T23:52:56.602Z,23.60
2023-02-07T23:55:24.067Z,23.47
2023-02-07T23:57:51.700Z,25.77
